Time;durP1;ratioP1;P1;durP2;ratioP2;P2;SDS_P1;SDS_P2;PMS_P1;PMS_P2;Temp;Humidity;BMP_temperature;BMP_pressure;BME280_temperature;BME280_humidity;BME280_pressure;Samples;Min_cycle;Max_cycle;Signal;HPM_P1;HPM_P2
2024/01/20 00:01:39;;;;;;;24.70;17.27;;;0.80;99.90;;;;;;5074522;28;20586;-68
2024/01/20 00:04:05;;;;;;;22.10;16.80;;;0.80;99.90;;;;;;5074212;28;20205;-68
2024/01/20 00:06:30;;;;;;;20.03;17.20;;;0.70;99.90;;;;;;5074757;28;20203;-68
2024/01/20 00:08:56;;;;;;;21.30;17.30;;;0.80;99.90;;;;;;5074794;28;20166;-69
2024/01/20 00:11:22;;;;;;;25.87;18.10;;;1.00;99.90;;;;;;5073773;28;20166;-68
2024/01/20 00:13:47;;;;;;;25.17;19.27;;;1.00;99.90;;;;;;5074208;28;20193;-68
2024/01/20 00:16:13;;;;;;;23.57;17.67;;;1.00;99.90;;;;;;5074463;28;20212;-68
2024/01/20 00:18:38;;;;;;;24.80;16.90;;;1.00;99.90;;;;;;5074327;28;20572;-67
2024/01/20 00:21:04;;;;;;;22.07;16.97;;;1.10;99.90;;;;;;5073968;28;20693;-67
2024/01/20 00:23:30;;;;;;;19.70;16.07;;;1.10;99.90;;;;;;5074133;28;20170;-67
2024/01/20 00:25:55;;;;;;;22.57;16.53;;;1.10;99.90;;;;;;5073925;28;20262;-68
2024/01/20 00:28:21;;;;;;;24.00;18.37;;;1.10;99.90;;;;;;5074201;28;20176;-68
2024/01/20 00:30:46;;;;;;;21.20;17.53;;;1.00;99.90;;;;;;5073897;28;20179;-67
2024/01/20 00:33:12;;;;;;;20.80;15.97;;;1.00;99.90;;;;;;5073804;28;20170;-68
2024/01/20 00:35:42;;;;;;;21.60;16.57;;;0.80;99.90;;;;;;5073633;28;20197;-68
2024/01/20 00:38:08;;;;;;;26.17;18.20;;;0.80;99.90;;;;;;5073921;28;20599;-68
2024/01/20 00:40:33;;;;;;;24.43;17.83;;;0.80;99.90;;;;;;5073859;28;20508;-67
2024/01/20 00:42:59;;;;;;;26.30;17.87;;;0.70;99.90;;;;;;5073706;28;21158;-67
2024/01/20 00:45:24;;;;;;;26.43;17.60;;;0.90;99.90;;;;;;5073305;28;20233;-68
2024/01/20 00:47:50;;;;;;;21.80;17.27;;;0.80;99.90;;;;;;5055673;28;20174;-67
2024/01/20 00:50:16;;;;;;;21.30;17.10;;;0.60;99.90;;;;;;5073937;28;20170;-67
2024/01/20 00:52:41;;;;;;;23.13;18.37;;;0.60;99.90;;;;;;5073585;28;20575;-68
2024/01/20 00:55:07;;;;;;;19.83;15.43;;;0.60;99.90;;;;;;5072993;28;20202;-68
2024/01/20 00:57:33;;;;;;;23.77;17.00;;;0.50;99.90;;;;;;5073428;28;20645;-67
2024/01/20 00:59:59;;;;;;;24.90;18.27;;;0.50;99.90;;;;;;5073724;28;20414;-68
2024/01/20 01:02:25;;;;;;;24.80;18.27;;;0.60;99.90;;;;;;5073413;28;20180;-67
2024/01/20 01:04:51;;;;;;;21.67;17.57;;;0.60;99.90;;;;;;5073124;28;20205;-67
2024/01/20 01:07:16;;;;;;;26.27;18.67;;;0.30;99.90;;;;;;5073224;28;20408;-67
2024/01/20 01:09:42;;;;;;;27.30;20.70;;;0.40;99.90;;;;;;5052031;28;20177;-68
2024/01/20 01:12:07;;;;;;;28.37;20.00;;;0.50;99.90;;;;;;5073634;28;20178;-69
2024/01/20 01:14:33;;;;;;;24.77;20.60;;;0.60;99.90;;;;;;5073218;28;20291;-68
2024/01/20 01:16:59;;;;;;;28.80;20.37;;;0.60;99.90;;;;;;5073338;28;20706;-68
2024/01/20 01:19:25;;;;;;;29.50;21.70;;;0.60;99.90;;;;;;5073173;28;20177;-68
2024/01/20 01:21:50;;;;;;;27.80;21.70;;;0.50;99.90;;;;;;5072276;28;20181;-68
2024/01/20 01:24:16;;;;;;;27.40;20.00;;;0.20;99.90;;;;;;5072974;28;20431;-68
2024/01/20 01:26:41;;;;;;;24.87;20.80;;;0.40;99.90;;;;;;5073163;28;20174;-68
2024/01/20 01:29:07;;;;;;;25.93;20.27;;;0.50;99.90;;;;;;5073230;28;20196;-68
2024/01/20 01:31:32;;;;;;;26.63;20.23;;;0.40;99.90;;;;;;5074240;28;20545;-68
2024/01/20 01:33:58;;;;;;;25.40;19.37;;;0.60;99.90;;;;;;5073949;28;20336;-68
2024/01/20 01:36:23;;;;;;;30.43;21.80;;;0.60;99.90;;;;;;5073177;28;20170;-68
2024/01/20 01:38:49;;;;;;;30.60;22.80;;;0.70;99.90;;;;;;5073405;28;20232;-68
2024/01/20 01:41:14;;;;;;;27.33;21.70;;;0.70;99.90;;;;;;5073768;28;20203;-68
2024/01/20 01:43:40;;;;;;;26.77;21.20;;;0.80;99.90;;;;;;5073536;28;20221;-68
2024/01/20 01:46:06;;;;;;;26.70;21.00;;;1.00;99.90;;;;;;5071944;28;20194;-68
2024/01/20 01:48:33;;;;;;;26.77;20.57;;;0.90;99.90;;;;;;5072131;28;20170;-68
2024/01/20 01:51:02;;;;;;;29.10;21.50;;;0.90;99.90;;;;;;5071784;28;20412;-68
2024/01/20 01:53:28;;;;;;;30.93;22.83;;;0.90;99.90;;;;;;5071969;28;20408;-68
2024/01/20 01:55:54;;;;;;;30.77;20.80;;;0.80;99.90;;;;;;5072072;28;20410;-68
2024/01/20 01:58:20;;;;;;;30.20;21.17;;;0.70;99.90;;;;;;5071931;28;20174;-68
2024/01/20 02:00:47;;;;;;;29.83;23.27;;;0.70;99.90;;;;;;5072096;28;20415;-68
2024/01/20 02:03:13;;;;;;;25.93;20.50;;;0.60;99.90;;;;;;5071988;28;20443;-68
2024/01/20 02:05:39;;;;;;;28.03;20.17;;;0.30;99.90;;;;;;5071476;28;20499;-68
2024/01/20 02:08:05;;;;;;;26.40;20.07;;;0.30;99.90;;;;;;5071724;28;20245;-68
2024/01/20 02:10:31;;;;;;;26.77;20.70;;;0.50;99.90;;;;;;5071836;28;20166;-68
2024/01/20 02:12:57;;;;;;;29.10;22.50;;;0.40;99.90;;;;;;5071570;28;20901;-68
2024/01/20 02:15:24;;;;;;;29.50;21.60;;;0.40;99.90;;;;;;5071409;28;20799;-68
2024/01/20 02:17:54;;;;;;;27.83;20.53;;;0.50;99.90;;;;;;5071467;28;20499;-68
2024/01/20 02:20:23;;;;;;;26.30;20.03;;;0.40;99.90;;;;;;5071850;28;20762;-68
2024/01/20 02:22:48;;;;;;;26.13;19.10;;;0.30;99.90;;;;;;5071410;28;20421;-68
2024/01/20 02:25:15;;;;;;;26.00;20.30;;;0.30;99.90;;;;;;5071158;28;20452;-68
2024/01/20 02:27:40;;;;;;;26.00;21.10;;;0.30;99.90;;;;;;5071370;28;20170;-68
2024/01/20 02:30:06;;;;;;;26.70;21.47;;;0.30;99.90;;;;;;5071385;28;20406;-68
2024/01/20 02:32:32;;;;;;;26.27;20.17;;;0.40;99.90;;;;;;5053412;28;20173;-68
2024/01/20 02:34:58;;;;;;;26.93;21.00;;;0.30;99.90;;;;;;5074417;28;20461;-68
2024/01/20 02:37:23;;;;;;;28.07;20.97;;;0.20;99.90;;;;;;5075237;28;20166;-68
2024/01/20 02:39:49;;;;;;;33.57;21.50;;;0.00;99.90;;;;;;5075015;28;20187;-68
2024/01/20 02:42:14;;;;;;;31.17;22.10;;;0.10;99.90;;;;;;5075288;28;20173;-68
2024/01/20 02:44:41;;;;;;;27.83;21.37;;;0.30;99.90;;;;;;5038016;28;1063243;-68
2024/01/20 02:47:07;;;;;;;27.20;19.80;;;0.30;99.90;;;;;;5076080;28;20224;-68
2024/01/20 02:49:33;;;;;;;35.57;22.47;;;0.50;99.90;;;;;;5057775;28;20416;-68
2024/01/20 02:51:59;;;;;;;25.83;19.70;;;0.30;99.90;;;;;;5075657;28;20166;-68
2024/01/20 02:54:24;;;;;;;25.30;20.10;;;0.20;99.90;;;;;;5075473;28;20453;-68
2024/01/20 02:56:50;;;;;;;31.23;22.23;;;0.20;99.90;;;;;;5075566;28;20173;-68
2024/01/20 02:59:16;;;;;;;31.60;23.27;;;0.20;99.90;;;;;;5075451;28;20257;-67
2024/01/20 03:01:41;;;;;;;30.97;22.67;;;0.40;99.90;;;;;;5075439;28;20171;-68
2024/01/20 03:04:07;;;;;;;33.50;21.17;;;0.40;99.90;;;;;;5075286;28;20197;-68
2024/01/20 03:06:32;;;;;;;31.97;23.60;;;0.40;99.90;;;;;;5075595;28;20280;-68
2024/01/20 03:08:58;;;;;;;28.57;22.00;;;0.40;99.90;;;;;;5075337;28;20547;-68
2024/01/20 03:11:24;;;;;;;27.57;20.67;;;0.40;99.90;;;;;;5075263;28;20189;-68
2024/01/20 03:13:50;;;;;;;28.27;21.23;;;0.60;99.90;;;;;;5074501;28;20217;-67
2024/01/20 03:16:15;;;;;;;29.53;23.40;;;0.60;99.90;;;;;;5074655;28;20434;-68
2024/01/20 03:18:41;;;;;;;30.50;22.87;;;0.50;99.90;;;;;;5075173;28;20186;-68
2024/01/20 03:21:07;;;;;;;26.30;19.87;;;0.20;99.90;;;;;;5075427;28;20181;-68
2024/01/20 03:23:33;;;;;;;30.40;21.87;;;-0.20;99.90;;;;;;5074983;28;20179;-68
2024/01/20 03:25:58;;;;;;;26.40;21.37;;;-0.20;99.90;;;;;;5075114;28;20728;-68
2024/01/20 03:28:24;;;;;;;29.37;23.07;;;-0.10;99.90;;;;;;5075266;28;20491;-68
2024/01/20 03:30:49;;;;;;;32.90;22.13;;;0.00;99.90;;;;;;5074985;28;20184;-68
2024/01/20 03:33:15;;;;;;;30.47;22.23;;;-0.10;99.90;;;;;;5075072;28;20178;-67
2024/01/20 03:35:40;;;;;;;31.90;22.67;;;-0.20;99.90;;;;;;5074766;28;20173;-68
2024/01/20 03:38:06;;;;;;;35.43;25.13;;;-0.20;99.90;;;;;;5074811;28;20205;-68
2024/01/20 03:40:32;;;;;;;31.93;22.90;;;-0.20;99.90;;;;;;5075062;28;20193;-68
2024/01/20 03:42:57;;;;;;;29.10;21.50;;;-0.10;99.90;;;;;;5074728;28;20261;-68
2024/01/20 03:45:23;;;;;;;31.33;20.93;;;-0.10;99.90;;;;;;5088222;22;20224;-65
2024/01/20 03:47:48;;;;;;;27.40;21.97;;;-0.10;99.90;;;;;;5074751;28;20228;-67
2024/01/20 03:50:14;;;;;;;32.87;20.67;;;0.00;99.90;;;;;;5074792;28;20170;-66
2024/01/20 03:52:39;;;;;;;33.57;22.57;;;0.00;99.90;;;;;;5074993;28;20162;-67
2024/01/20 03:55:06;;;;;;;30.50;21.00;;;0.20;99.90;;;;;;5074428;28;20201;-67
2024/01/20 03:57:32;;;;;;;36.20;25.03;;;0.20;99.90;;;;;;5074515;28;20210;-67
2024/01/20 03:59:57;;;;;;;27.23;21.03;;;0.20;99.90;;;;;;5074491;28;20451;-67
2024/01/20 04:02:23;;;;;;;31.30;21.67;;;0.30;99.90;;;;;;5074676;28;20401;-67
2024/01/20 04:04:48;;;;;;;33.50;24.57;;;0.30;99.90;;;;;;5074203;28;20595;-66
2024/01/20 04:07:15;;;;;;;31.40;23.30;;;0.20;99.90;;;;;;5074311;28;20178;-65
2024/01/20 04:09:40;;;;;;;31.23;21.97;;;0.30;99.90;;;;;;5074540;28;20203;-66
2024/01/20 04:12:07;;;;;;;29.93;22.53;;;0.00;99.90;;;;;;5074361;28;20899;-67
2024/01/20 04:14:32;;;;;;;32.73;24.53;;;0.20;99.90;;;;;;5074026;28;20570;-66
2024/01/20 04:16:58;;;;;;;34.73;26.17;;;0.30;99.90;;;;;;5074072;28;20446;-68
2024/01/20 04:19:23;;;;;;;31.53;23.83;;;0.20;99.90;;;;;;5074308;28;20169;-67
2024/01/20 04:21:49;;;;;;;33.00;24.40;;;0.20;99.90;;;;;;5074349;28;20248;-67
2024/01/20 04:24:15;;;;;;;28.43;22.20;;;0.00;99.90;;;;;;5074165;28;20213;-67
2024/01/20 04:26:40;;;;;;;32.30;23.63;;;-0.10;99.90;;;;;;5073952;28;20550;-67
2024/01/20 04:29:06;;;;;;;30.37;22.53;;;-0.30;99.90;;;;;;5073901;28;20173;-66
2024/01/20 04:31:31;;;;;;;31.73;24.43;;;-0.30;99.90;;;;;;5073584;28;20230;-67
2024/01/20 04:33:57;;;;;;;32.27;22.07;;;-0.20;99.90;;;;;;5073743;28;20177;-66
2024/01/20 04:36:23;;;;;;;29.70;22.07;;;-0.30;99.90;;;;;;5073654;28;20668;-66
2024/01/20 04:38:49;;;;;;;30.00;22.83;;;-0.20;99.90;;;;;;5073960;28;20686;-66
2024/01/20 04:41:14;;;;;;;32.87;24.70;;;-0.20;99.90;;;;;;5055725;28;20415;-64
2024/01/20 04:43:40;;;;;;;30.67;23.20;;;-0.20;99.90;;;;;;5073812;28;20184;-67
2024/01/20 04:46:05;;;;;;;37.80;26.20;;;-0.30;99.90;;;;;;5073399;28;20209;-66
2024/01/20 04:48:31;;;;;;;32.87;25.30;;;-0.30;99.90;;;;;;5073657;28;20168;-67
2024/01/20 04:50:57;;;;;;;34.37;24.57;;;-0.10;99.90;;;;;;5073517;28;20196;-66
2024/01/20 04:53:22;;;;;;;30.53;24.07;;;-0.10;99.90;;;;;;5073617;28;20260;-67
2024/01/20 04:55:48;;;;;;;34.63;24.90;;;0.00;99.90;;;;;;5073368;28;20844;-65
2024/01/20 04:58:14;;;;;;;30.53;24.60;;;0.10;99.90;;;;;;5073042;28;20203;-67
2024/01/20 05:00:39;;;;;;;34.23;24.83;;;0.10;99.90;;;;;;5073305;28;20200;-66
2024/01/20 05:03:05;;;;;;;30.23;22.80;;;0.10;99.90;;;;;;5073266;28;20173;-67
2024/01/20 05:05:30;;;;;;;27.20;20.73;;;0.30;99.90;;;;;;5064221;28;20302;-65
2024/01/20 05:07:56;;;;;;;33.40;24.27;;;0.30;99.90;;;;;;5063834;28;20170;-67
2024/01/20 05:10:21;;;;;;;31.73;23.80;;;0.20;99.90;;;;;;5063813;28;20234;-66
2024/01/20 05:12:47;;;;;;;33.83;24.23;;;0.30;99.90;;;;;;5063868;28;20188;-64
2024/01/20 05:15:13;;;;;;;32.90;24.87;;;0.30;99.90;;;;;;5063596;28;20290;-67
2024/01/20 05:17:39;;;;;;;28.23;20.57;;;0.20;99.90;;;;;;5063202;28;20174;-65
2024/01/20 05:20:05;;;;;;;33.40;22.40;;;0.10;99.90;;;;;;5063018;28;20200;-67
2024/01/20 05:22:31;;;;;;;33.40;23.20;;;-0.10;99.90;;;;;;5063515;28;20434;-66
2024/01/20 05:24:57;;;;;;;28.73;22.00;;;-0.40;99.90;;;;;;5045455;28;20463;-67
2024/01/20 05:27:22;;;;;;;29.07;20.40;;;-0.50;99.90;;;;;;5063355;28;20408;-67
2024/01/20 05:29:48;;;;;;;31.83;22.80;;;-0.40;99.90;;;;;;5063725;28;20182;-66
2024/01/20 05:32:15;;;;;;;26.97;20.63;;;-0.40;99.90;;;;;;5063868;28;20182;-65
2024/01/20 05:34:40;;;;;;;29.10;21.87;;;-0.40;99.90;;;;;;5045570;28;20204;-65
2024/01/20 05:37:06;;;;;;;30.67;22.87;;;-0.50;99.90;;;;;;5063497;28;20439;-65
2024/01/20 05:39:32;;;;;;;29.97;22.23;;;-0.70;99.90;;;;;;5063897;28;20197;-64
2024/01/20 05:41:57;;;;;;;28.80;22.80;;;-0.70;99.90;;;;;;5063289;28;20501;-65
2024/01/20 05:44:23;;;;;;;31.57;21.43;;;-0.70;99.90;;;;;;5063061;28;20267;-65
2024/01/20 05:46:48;;;;;;;30.90;22.57;;;-0.70;99.90;;;;;;5063239;28;20181;-65
2024/01/20 05:49:14;;;;;;;30.93;23.97;;;-0.50;99.90;;;;;;5063460;28;20191;-65
2024/01/20 05:51:39;;;;;;;32.77;23.90;;;-0.40;99.90;;;;;;5063262;28;20186;-68
2024/01/20 05:54:05;;;;;;;35.90;24.57;;;-0.50;99.90;;;;;;5063081;28;20194;-67
2024/01/20 05:56:30;;;;;;;30.23;22.57;;;-0.70;99.90;;;;;;5063210;28;20189;-67
2024/01/20 05:58:56;;;;;;;34.40;24.37;;;-0.70;99.90;;;;;;5063052;28;20184;-67
2024/01/20 06:01:22;;;;;;;30.77;22.20;;;-0.60;99.90;;;;;;5063381;28;20191;-67
2024/01/20 06:03:47;;;;;;;33.97;22.03;;;-0.70;99.90;;;;;;5062927;28;20929;-66
2024/01/20 06:06:13;;;;;;;34.57;24.67;;;-0.60;99.90;;;;;;5063047;28;20198;-67
2024/01/20 06:08:38;;;;;;;31.87;23.80;;;-0.60;99.90;;;;;;5064598;28;20598;-66
2024/01/20 06:11:04;;;;;;;34.70;23.73;;;-0.70;99.90;;;;;;5067240;28;20182;-68
2024/01/20 06:13:29;;;;;;;31.03;23.33;;;-0.60;99.90;;;;;;5067223;28;20195;-65
2024/01/20 06:15:55;;;;;;;31.87;23.20;;;-0.60;99.90;;;;;;5048698;28;20225;-66
2024/01/20 06:18:21;;;;;;;32.37;23.33;;;-0.50;99.90;;;;;;5067249;28;20185;-65
2024/01/20 06:20:46;;;;;;;31.67;24.30;;;-0.50;99.90;;;;;;5066458;28;20195;-65
2024/01/20 06:23:12;;;;;;;34.43;25.27;;;-0.50;99.90;;;;;;5067157;28;20180;-64
2024/01/20 06:25:38;;;;;;;33.90;22.93;;;-0.70;99.90;;;;;;5066375;28;20211;-65
2024/01/20 06:28:05;;;;;;;38.80;26.00;;;-0.70;99.90;;;;;;5066869;28;20422;-66
2024/01/20 06:30:31;;;;;;;36.83;26.30;;;-0.60;99.90;;;;;;5066545;28;20679;-65
2024/01/20 06:32:58;;;;;;;44.80;25.50;;;-0.70;99.90;;;;;;5066613;28;20422;-66
2024/01/20 06:35:23;;;;;;;36.10;26.00;;;-0.60;99.90;;;;;;5066701;28;20446;-64
2024/01/20 06:37:49;;;;;;;34.17;24.20;;;-0.60;99.90;;;;;;5066551;28;20773;-67
2024/01/20 06:40:14;;;;;;;41.83;25.80;;;-0.40;99.90;;;;;;5066284;28;20481;-66
2024/01/20 06:42:40;;;;;;;36.47;26.73;;;-0.30;99.90;;;;;;5066433;28;20221;-66
2024/01/20 06:45:06;;;;;;;36.73;24.87;;;-0.30;99.90;;;;;;5065877;28;20233;-65
2024/01/20 06:47:32;;;;;;;38.83;24.03;;;-0.40;99.90;;;;;;5066446;28;20174;-66
2024/01/20 06:49:58;;;;;;;35.13;26.00;;;-0.70;99.90;;;;;;5066445;28;20434;-65
2024/01/20 06:52:23;;;;;;;33.93;23.23;;;-0.60;99.90;;;;;;5066745;28;20644;-66
2024/01/20 06:54:49;;;;;;;37.20;25.70;;;-0.60;99.90;;;;;;5066065;28;20220;-66
2024/01/20 06:57:15;;;;;;;37.17;25.53;;;-0.60;99.90;;;;;;5066146;28;20175;-64
2024/01/20 06:59:40;;;;;;;36.97;24.93;;;-0.60;99.90;;;;;;5066090;28;20189;-66
2024/01/20 07:02:06;;;;;;;36.77;25.60;;;-0.70;99.90;;;;;;5047982;28;20204;-65
2024/01/20 07:04:31;;;;;;;39.33;26.07;;;-0.80;99.90;;;;;;5066203;28;20208;-66
2024/01/20 07:06:57;;;;;;;42.47;26.00;;;-1.10;99.90;;;;;;5066022;28;20508;-64
2024/01/20 07:09:23;;;;;;;36.07;26.40;;;-1.20;99.90;;;;;;5066339;28;20173;-66
2024/01/20 07:11:49;;;;;;;33.30;23.80;;;-1.40;99.90;;;;;;5047808;28;20182;-65
2024/01/20 07:14:14;;;;;;;33.07;23.50;;;-1.20;99.90;;;;;;5065858;28;21004;-66
2024/01/20 07:16:40;;;;;;;33.27;24.30;;;-1.00;99.90;;;;;;5065295;28;20181;-66
2024/01/20 07:19:06;;;;;;;43.80;27.30;;;-0.80;99.90;;;;;;5065514;28;20174;-67
2024/01/20 07:21:31;;;;;;;30.27;23.33;;;-0.80;99.90;;;;;;5065356;28;20234;-69
2024/01/20 07:23:57;;;;;;;29.50;22.70;;;-0.60;99.90;;;;;;5065910;28;20183;-67
2024/01/20 07:26:22;;;;;;;37.60;26.07;;;-0.70;99.90;;;;;;5070132;28;20292;-68
2024/01/20 07:28:48;;;;;;;34.40;25.63;;;-0.70;99.90;;;;;;5075050;28;20713;-68
2024/01/20 07:31:13;;;;;;;33.07;24.90;;;-0.70;99.90;;;;;;5075751;28;20533;-67
2024/01/20 07:33:40;;;;;;;38.77;24.93;;;-0.50;99.90;;;;;;5056887;28;20684;-66
2024/01/20 07:36:06;;;;;;;37.53;25.97;;;-0.50;99.90;;;;;;5074987;28;20169;-67
2024/01/20 07:38:32;;;;;;;34.20;24.77;;;-0.40;99.90;;;;;;5074929;28;20421;-67
2024/01/20 07:40:59;;;;;;;34.67;25.50;;;-0.30;99.90;;;;;;5075185;28;20273;-67
2024/01/20 07:43:24;;;;;;;31.53;23.80;;;-0.40;99.90;;;;;;5074848;28;20170;-65
2024/01/20 07:45:54;;;;;;;34.43;24.13;;;-0.60;99.90;;;;;;5056515;28;20993;-65
2024/01/20 07:48:20;;;;;;;34.83;25.30;;;-0.60;99.90;;;;;;5074942;28;20187;-66
2024/01/20 07:50:45;;;;;;;33.43;23.37;;;-0.60;99.90;;;;;;5074953;28;20415;-65
2024/01/20 07:53:11;;;;;;;34.57;23.90;;;-0.50;99.90;;;;;;5074882;28;20765;-67
2024/01/20 07:55:36;;;;;;;36.37;23.20;;;-0.50;99.90;;;;;;5075162;28;20194;-66
2024/01/20 07:58:02;;;;;;;32.10;23.47;;;-0.40;99.90;;;;;;5074725;28;20176;-67
2024/01/20 08:00:28;;;;;;;33.27;25.23;;;-0.50;99.90;;;;;;5074194;28;20184;-68
2024/01/20 08:02:53;;;;;;;28.73;21.50;;;-0.70;99.90;;;;;;5074448;28;20533;-66
2024/01/20 08:05:19;;;;;;;33.70;25.23;;;-0.50;99.90;;;;;;5056350;28;20189;-66
2024/01/20 08:07:44;;;;;;;35.33;25.00;;;-0.60;99.90;;;;;;5074556;28;20538;-67
2024/01/20 08:10:10;;;;;;;33.80;23.20;;;-0.70;99.90;;;;;;5074226;28;20165;-66
2024/01/20 08:12:36;;;;;;;33.83;23.57;;;-0.60;99.90;;;;;;5074312;28;20244;-65
2024/01/20 08:15:02;;;;;;;28.23;21.10;;;-0.70;99.90;;;;;;5056386;28;20430;-66
2024/01/20 08:17:27;;;;;;;31.70;24.00;;;-0.70;99.90;;;;;;5074007;28;20180;-65
2024/01/20 08:19:53;;;;;;;32.47;23.57;;;-1.00;99.90;;;;;;5076776;28;20252;-67
2024/01/20 08:22:19;;;;;;;35.67;23.80;;;-0.90;99.90;;;;;;5080101;28;20166;-66
2024/01/20 08:24:45;;;;;;;32.60;23.87;;;-0.90;99.90;;;;;;5073609;28;20198;-66
2024/01/20 08:27:10;;;;;;;39.90;25.80;;;-0.80;99.90;;;;;;5074063;28;20891;-66
2024/01/20 08:29:36;;;;;;;36.10;25.70;;;-0.50;99.90;;;;;;5073998;28;20166;-66
2024/01/20 08:32:02;;;;;;;35.90;24.23;;;-0.60;99.90;;;;;;5073213;28;20162;-66
2024/01/20 08:34:27;;;;;;;32.17;23.60;;;-0.40;99.90;;;;;;5073501;28;20190;-66
2024/01/20 08:36:53;;;;;;;33.20;23.37;;;-0.20;99.90;;;;;;5073582;28;20180;-66
2024/01/20 08:39:19;;;;;;;28.53;22.10;;;-0.20;99.90;;;;;;5073593;28;20161;-66
2024/01/20 08:41:45;;;;;;;33.80;24.00;;;-0.20;99.90;;;;;;5073830;28;20248;-65
2024/01/20 08:44:11;;;;;;;31.20;23.50;;;-0.10;99.90;;;;;;5073706;28;20199;-66
2024/01/20 08:46:36;;;;;;;31.77;23.60;;;0.10;99.90;;;;;;5073359;28;20542;-65
2024/01/20 08:49:02;;;;;;;32.10;23.30;;;-0.10;99.90;;;;;;5074008;28;20158;-66
2024/01/20 08:51:27;;;;;;;34.70;23.93;;;-0.20;99.90;;;;;;5073785;28;20162;-67
2024/01/20 08:53:53;;;;;;;33.20;24.60;;;0.00;99.90;;;;;;5073239;28;20712;-67
2024/01/20 08:56:19;;;;;;;37.73;26.33;;;0.10;99.90;;;;;;5073278;28;20166;-67
2024/01/20 08:58:44;;;;;;;36.97;25.80;;;0.20;99.90;;;;;;5073714;28;20577;-66
2024/01/20 09:01:10;;;;;;;35.30;25.33;;;0.00;99.90;;;;;;5073165;28;20660;-65
2024/01/20 09:03:35;;;;;;;29.47;21.53;;;-0.30;99.90;;;;;;5073620;28;20173;-66
2024/01/20 09:06:01;;;;;;;34.53;24.73;;;-0.40;99.90;;;;;;5055105;28;20196;-66
2024/01/20 09:08:27;;;;;;;34.47;24.70;;;-0.50;99.90;;;;;;5073010;28;20724;-66
2024/01/20 09:10:52;;;;;;;33.90;23.23;;;-0.30;99.90;;;;;;5055344;28;20460;-66
2024/01/20 09:13:18;;;;;;;35.40;25.30;;;-0.20;99.90;;;;;;5073388;28;20204;-66
2024/01/20 09:15:44;;;;;;;33.67;25.03;;;-0.20;99.90;;;;;;5073233;28;20200;-66
2024/01/20 09:18:11;;;;;;;32.97;24.70;;;-0.40;99.90;;;;;;5073177;28;20567;-67
2024/01/20 09:20:37;;;;;;;32.80;25.13;;;-0.30;99.90;;;;;;5057520;28;20408;-65
2024/01/20 09:23:03;;;;;;;36.80;26.10;;;-0.30;99.90;;;;;;5053119;28;20400;-67
2024/01/20 09:25:29;;;;;;;31.93;23.83;;;-0.20;99.90;;;;;;5060026;28;20451;-67
2024/01/20 09:27:55;;;;;;;30.73;23.63;;;-0.30;99.90;;;;;;5073378;28;20399;-66
2024/01/20 09:30:20;;;;;;;34.50;23.40;;;-0.40;99.90;;;;;;5073409;28;20815;-67
2024/01/20 09:32:46;;;;;;;31.07;23.70;;;-0.20;99.90;;;;;;5073157;28;20582;-67
2024/01/20 09:35:12;;;;;;;32.97;22.63;;;-0.10;99.90;;;;;;5073391;28;20190;-66
2024/01/20 09:37:37;;;;;;;29.90;23.70;;;0.00;99.90;;;;;;5073147;28;20173;-67
2024/01/20 09:40:05;;;;;;;30.73;23.07;;;-0.20;99.90;;;;;;5073698;28;20190;-67
2024/01/20 09:42:31;;;;;;;33.40;24.70;;;0.00;99.90;;;;;;5072424;28;20710;-67
2024/01/20 09:44:58;;;;;;;36.73;25.10;;;0.00;99.90;;;;;;5086461;22;20844;-68
2024/01/20 09:47:23;;;;;;;32.90;25.60;;;0.40;99.90;;;;;;5072500;28;20447;-68
2024/01/20 09:49:49;;;;;;;33.80;24.20;;;0.40;99.90;;;;;;5072559;28;20428;-68
2024/01/20 09:52:27;;;;;;;31.80;24.13;;;0.50;99.90;;;;;;5054513;28;20261;-68
2024/01/20 09:55:13;;;;;;;34.97;24.60;;;0.40;99.90;;;;;;5072418;28;20183;-69
2024/01/20 09:57:41;;;;;;;32.80;24.37;;;0.50;99.90;;;;;;5072453;28;20910;-68
2024/01/20 10:00:08;;;;;;;32.30;23.50;;;0.40;99.90;;;;;;5054323;28;20400;-68
2024/01/20 10:02:35;;;;;;;25.90;19.43;;;0.40;99.90;;;;;;5072401;28;20487;-69
2024/01/20 10:05:05;;;;;;;27.70;21.50;;;0.50;99.90;;;;;;5053482;28;20452;-68
2024/01/20 10:07:31;;;;;;;31.57;22.80;;;0.50;99.90;;;;;;5072993;28;20400;-68
2024/01/20 10:09:57;;;;;;;31.10;23.17;;;0.40;99.90;;;;;;5072619;28;20953;-68
2024/01/20 10:12:25;;;;;;;30.60;23.30;;;0.30;99.90;;;;;;5072398;28;20457;-68
2024/01/20 10:14:51;;;;;;;29.50;21.40;;;0.30;99.90;;;;;;5072417;28;20192;-68
2024/01/20 10:17:17;;;;;;;34.93;25.07;;;0.20;99.90;;;;;;5072240;28;20513;-69
2024/01/20 10:19:43;;;;;;;28.40;22.40;;;0.10;99.90;;;;;;5072497;28;20408;-68
2024/01/20 10:22:09;;;;;;;28.27;22.20;;;0.20;99.90;;;;;;5072117;28;20430;-68
2024/01/20 10:24:45;;;;;;;28.10;22.50;;;0.40;99.90;;;;;;5072097;28;20221;-69
2024/01/20 10:27:19;;;;;;;28.43;22.00;;;0.20;99.90;;;;;;5072524;28;20933;-69
2024/01/20 10:29:47;;;;;;;30.23;22.53;;;0.20;99.90;;;;;;5072266;28;20412;-69
2024/01/20 10:32:14;;;;;;;28.93;20.73;;;0.20;99.90;;;;;;5071995;28;20404;-68
2024/01/20 10:34:40;;;;;;;29.90;23.10;;;0.20;99.90;;;;;;5054311;28;20428;-68
2024/01/20 10:37:10;;;;;;;31.37;24.90;;;0.10;99.90;;;;;;5072272;28;20433;-68
2024/01/20 10:39:43;;;;;;;35.77;23.70;;;0.20;99.90;;;;;;5072150;28;20415;-68
2024/01/20 10:42:13;;;;;;;31.60;23.43;;;0.40;99.90;;;;;;5072613;28;20412;-68
2024/01/20 10:44:44;;;;;;;26.40;20.90;;;0.40;99.90;;;;;;5072548;28;20864;-68
2024/01/20 10:47:22;;;;;;;32.17;24.07;;;0.50;99.90;;;;;;5072343;28;20407;-68
2024/01/20 10:49:49;;;;;;;29.60;24.20;;;0.70;99.90;;;;;;5072176;28;20433;-68
2024/01/20 10:52:15;;;;;;;32.40;23.67;;;0.90;99.90;;;;;;5072129;28;20411;-68
2024/01/20 10:54:44;;;;;;;31.60;23.67;;;0.90;99.90;;;;;;5073391;28;20426;-67
2024/01/20 10:57:10;;;;;;;33.10;24.70;;;0.80;99.90;;;;;;5075835;28;20166;-68
2024/01/20 10:59:42;;;;;;;30.33;23.47;;;1.00;99.90;;;;;;5075468;28;20743;-68
2024/01/20 11:02:12;;;;;;;32.70;25.10;;;1.00;99.90;;;;;;5074945;28;20392;-68
2024/01/20 11:04:40;;;;;;;30.30;22.63;;;0.90;99.90;;;;;;5075159;28;20930;-68
2024/01/20 11:07:08;;;;;;;28.43;22.03;;;1.00;99.90;;;;;;5075691;28;20408;-68
2024/01/20 11:09:33;;;;;;;31.43;23.53;;;1.20;99.90;;;;;;5075294;28;20407;-69
2024/01/20 11:12:06;;;;;;;25.90;19.70;;;1.70;99.90;;;;;;5075430;28;20397;-69
2024/01/20 11:14:32;;;;;;;26.27;19.47;;;3.10;99.90;;;;;;5075941;28;20193;-69
2024/01/20 11:17:11;;;;;;;23.47;19.73;;;5.20;99.90;;;;;;5075511;28;20404;-70
2024/01/20 11:19:38;;;;;;;23.87;19.17;;;6.80;99.90;;;;;;5075425;28;20162;-69
2024/01/20 11:22:04;;;;;;;24.33;20.50;;;7.90;99.90;;;;;;5074996;28;20451;-68
2024/01/20 11:24:41;;;;;;;22.73;19.43;;;8.80;97.40;;;;;;5067215;28;20756;-69
2024/01/20 11:27:07;;;;;;;22.27;19.20;;;9.10;96.20;;;;;;5037131;28;20415;-68
2024/01/20 11:29:33;;;;;;;20.67;17.93;;;10.40;93.80;;;;;;5054940;28;20463;-68
2024/01/20 11:31:58;;;;;;;22.07;18.73;;;11.00;91.10;;;;;;5066689;28;20175;-69
2024/01/20 11:34:24;;;;;;;21.93;18.73;;;12.10;87.60;;;;;;5074798;28;20407;-69
2024/01/20 11:36:51;;;;;;;21.97;17.23;;;12.40;82.30;;;;;;5075196;28;20202;-69
2024/01/20 11:39:19;;;;;;;21.73;18.90;;;12.00;80.70;;;;;;5074791;28;20178;-68
2024/01/20 11:41:46;;;;;;;20.90;18.53;;;11.80;80.80;;;;;;5074626;28;20502;-69
2024/01/20 11:44:11;;;;;;;21.83;18.70;;;12.80;77.60;;;;;;5074808;28;20403;-69
2024/01/20 11:46:37;;;;;;;21.80;17.37;;;13.30;74.80;;;;;;5074579;28;20465;-69
2024/01/20 11:49:04;;;;;;;20.47;17.10;;;13.00;72.30;;;;;;5074621;28;20166;-69
2024/01/20 11:51:29;;;;;;;19.03;17.03;;;10.80;76.80;;;;;;5074703;28;20406;-69
2024/01/20 11:53:55;;;;;;;19.40;16.53;;;11.10;78.80;;;;;;5074377;28;20404;-68
2024/01/20 11:56:20;;;;;;;21.37;18.37;;;11.20;78.20;;;;;;5074340;28;20234;-69
2024/01/20 11:58:46;;;;;;;19.80;17.70;;;12.00;76.90;;;;;;5074872;28;20163;-70
2024/01/20 12:01:13;;;;;;;19.57;17.47;;;12.90;75.00;;;;;;5074598;28;20181;-69
2024/01/20 12:03:40;;;;;;;19.47;16.80;;;14.10;71.20;;;;;;5074547;28;20170;-69
2024/01/20 12:06:07;;;;;;;19.13;14.33;;;13.60;69.10;;;;;;5055477;28;20456;-70
2024/01/20 12:08:35;;;;;;;20.30;16.80;;;13.00;69.90;;;;;;5074124;28;20411;-70
2024/01/20 12:11:00;;;;;;;19.20;17.17;;;13.10;69.60;;;;;;5066666;28;20495;-69
2024/01/20 12:13:32;;;;;;;18.30;16.30;;;13.90;68.40;;;;;;5071170;28;20435;-69
2024/01/20 12:15:58;;;;;;;19.57;17.47;;;13.60;67.40;;;;;;5073898;28;20235;-69
2024/01/20 12:18:24;;;;;;;17.67;15.77;;;13.30;68.50;;;;;;5068205;28;20440;-69
2024/01/20 12:20:50;;;;;;;18.63;16.67;;;13.20;69.40;;;;;;5065100;28;20404;-70
2024/01/20 12:23:21;;;;;;;18.83;16.83;;;14.80;67.40;;;;;;5065181;28;20782;-70
2024/01/20 12:25:51;;;;;;;17.90;15.60;;;14.50;64.90;;;;;;5073828;28;20448;-69
2024/01/20 12:28:17;;;;;;;21.63;16.97;;;14.00;67.40;;;;;;5055844;28;20408;-69